createdAt,value
2017-06-30T00:00:57.661Z,2.30
2017-06-30T00:03:25.920Z,2.27
2017-06-30T00:05:53.471Z,2.27
2017-06-30T00:08:20.933Z,2.20
2017-06-30T00:10:48.488Z,2.20
2017-06-30T00:13:15.961Z,2.60
2017-06-30T00:15:43.417Z,2.40
2017-06-30T00:18:11.640Z,2.50
2017-06-30T00:20:39.128Z,2.40
2017-06-30T00:23:06.602Z,2.00
2017-06-30T00:25:34.148Z,2.33
2017-06-30T00:28:01.624Z,2.33
2017-06-30T00:30:29.853Z,2.73
2017-06-30T00:32:57.345Z,2.40
2017-06-30T00:35:24.799Z,2.37
2017-06-30T00:37:52.275Z,2.37
2017-06-30T00:40:20.497Z,2.60
2017-06-30T00:42:47.997Z,2.00
2017-06-30T00:45:15.461Z,3.10
2017-06-30T00:47:43.684Z,2.83
2017-06-30T00:50:11.191Z,2.67
2017-06-30T00:52:39.421Z,2.90
2017-06-30T00:55:06.913Z,2.90
2017-06-30T00:57:34.376Z,2.20
2017-06-30T01:00:01.930Z,2.50
2017-06-30T01:02:29.486Z,2.63
2017-06-30T01:04:56.944Z,2.90
2017-06-30T01:07:24.493Z,2.63
2017-06-30T01:09:52.058Z,2.50
2017-06-30T01:12:19.514Z,2.10
2017-06-30T01:14:46.971Z,2.73
2017-06-30T01:17:14.533Z,2.63
2017-06-30T01:19:42.099Z,2.70
2017-06-30T01:22:10.369Z,2.50
2017-06-30T01:24:37.916Z,2.90
2017-06-30T01:27:05.477Z,2.23
2017-06-30T01:29:33.042Z,2.87
2017-06-30T01:32:00.588Z,2.60
2017-06-30T01:34:28.054Z,2.63
2017-06-30T01:36:55.600Z,2.67
2017-06-30T01:39:23.074Z,3.00
2017-06-30T01:41:50.628Z,2.77
2017-06-30T01:44:18.089Z,2.33
2017-06-30T01:46:46.349Z,3.00
2017-06-30T01:49:13.799Z,2.80
2017-06-30T01:51:41.365Z,2.50
2017-06-30T01:54:08.920Z,2.43
2017-06-30T01:56:36.480Z,3.00
2017-06-30T01:59:03.935Z,2.63
2017-06-30T02:01:31.399Z,2.10
2017-06-30T02:03:58.855Z,3.00
2017-06-30T02:06:26.427Z,2.77
2017-06-30T02:08:53.907Z,2.53
2017-06-30T02:11:21.426Z,2.73
2017-06-30T02:13:48.984Z,2.90
2017-06-30T02:16:16.448Z,2.70
2017-06-30T02:18:43.909Z,2.30
2017-06-30T02:21:11.475Z,2.30
2017-06-30T02:23:39.732Z,2.77
2017-06-30T02:26:07.301Z,1.80
2017-06-30T02:28:34.781Z,2.00
2017-06-30T02:31:03.033Z,2.37
2017-06-30T02:33:30.500Z,1.80
2017-06-30T02:35:58.766Z,1.90
2017-06-30T02:38:27.001Z,1.67
2017-06-30T02:40:54.452Z,1.60
2017-06-30T02:43:21.914Z,2.23
2017-06-30T02:45:49.401Z,2.10
2017-06-30T02:48:16.878Z,1.47
2017-06-30T02:50:45.105Z,1.97
2017-06-30T02:53:12.565Z,1.60
2017-06-30T02:55:40.066Z,1.80
2017-06-30T02:58:08.279Z,1.53
2017-06-30T03:00:35.777Z,1.70
2017-06-30T03:03:03.261Z,2.10
2017-06-30T03:05:31.480Z,1.60
2017-06-30T03:07:58.956Z,1.90
2017-06-30T03:10:26.529Z,1.83
2017-06-30T03:12:53.990Z,1.77
2017-06-30T03:15:21.536Z,1.60
2017-06-30T03:17:49.102Z,2.10
2017-06-30T03:20:16.674Z,1.80
2017-06-30T03:22:44.938Z,1.57
2017-06-30T03:25:12.392Z,2.00
2017-06-30T03:27:39.944Z,1.80
2017-06-30T03:30:07.392Z,1.87
2017-06-30T03:32:34.865Z,2.30
2017-06-30T03:35:02.412Z,1.97
2017-06-30T03:37:29.877Z,1.83
2017-06-30T03:39:57.336Z,1.60
2017-06-30T03:42:24.819Z,1.93
2017-06-30T03:44:53.059Z,2.20
2017-06-30T03:47:20.542Z,2.30
2017-06-30T03:49:48.962Z,2.23
2017-06-30T03:52:16.445Z,2.60
2017-06-30T03:54:43.917Z,1.63
2017-06-30T03:57:13.371Z,1.80
2017-06-30T03:59:40.889Z,2.00
2017-06-30T04:02:09.149Z,1.50
2017-06-30T04:04:36.713Z,1.57
2017-06-30T04:07:04.260Z,1.80
2017-06-30T04:09:31.835Z,1.73
2017-06-30T04:11:59.380Z,1.90
2017-06-30T04:14:26.851Z,1.40
2017-06-30T04:16:54.395Z,1.50
2017-06-30T04:19:21.967Z,1.50
2017-06-30T04:21:49.422Z,1.40
2017-06-30T04:24:16.974Z,1.20
2017-06-30T04:26:44.540Z,1.37
2017-06-30T04:29:12.095Z,1.50
2017-06-30T04:31:39.653Z,1.37
2017-06-30T04:34:07.113Z,1.07
2017-06-30T04:36:34.583Z,1.30
2017-06-30T04:39:02.812Z,1.10
2017-06-30T04:41:30.297Z,1.10
2017-06-30T04:43:57.854Z,0.97
2017-06-30T04:46:25.330Z,1.20
2017-06-30T04:48:53.592Z,0.80
2017-06-30T04:51:21.146Z,0.73
2017-06-30T04:53:48.706Z,0.87
2017-06-30T04:56:16.270Z,0.90
2017-06-30T04:58:43.833Z,0.80
2017-06-30T05:01:11.287Z,0.70
2017-06-30T05:03:39.512Z,0.53
2017-06-30T05:06:06.972Z,0.80
2017-06-30T05:08:34.428Z,0.70
2017-06-30T05:11:01.894Z,0.63
2017-06-30T05:13:29.381Z,0.80
2017-06-30T05:15:56.938Z,0.70
2017-06-30T05:18:24.402Z,0.70
2017-06-30T05:20:51.956Z,0.70
2017-06-30T05:23:19.421Z,0.80
2017-06-30T05:25:47.697Z,0.63
2017-06-30T05:28:15.955Z,0.70
2017-06-30T05:30:43.423Z,0.70
2017-06-30T05:33:11.684Z,0.73
2017-06-30T05:35:39.252Z,0.80
2017-06-30T05:38:06.817Z,0.90
2017-06-30T05:40:34.281Z,0.87
2017-06-30T05:43:02.508Z,0.80
2017-06-30T05:45:29.989Z,1.03
2017-06-30T05:47:57.452Z,0.90
2017-06-30T05:50:25.045Z,1.10
2017-06-30T05:52:53.278Z,0.90
2017-06-30T05:55:20.840Z,0.80
2017-06-30T05:57:48.310Z,1.10
2017-06-30T06:00:16.567Z,1.17
2017-06-30T06:02:44.029Z,1.30
2017-06-30T06:05:11.596Z,1.27
2017-06-30T06:07:39.162Z,1.00
2017-06-30T06:10:06.616Z,1.10
2017-06-30T06:12:34.094Z,1.00
2017-06-30T06:15:01.643Z,1.10
2017-06-30T06:17:29.911Z,1.00
2017-06-30T06:19:58.137Z,0.70
2017-06-30T06:22:25.640Z,1.17
2017-06-30T06:24:53.105Z,1.20
2017-06-30T06:27:21.342Z,1.17
2017-06-30T06:29:48.796Z,1.17
2017-06-30T06:32:16.261Z,1.20
2017-06-30T06:34:44.747Z,0.90
2017-06-30T06:37:12.227Z,1.23
2017-06-30T06:39:40.444Z,1.10
2017-06-30T06:42:07.936Z,1.20
2017-06-30T06:44:35.502Z,1.17
2017-06-30T06:47:02.973Z,1.17
2017-06-30T06:49:31.197Z,1.30
2017-06-30T06:51:58.661Z,1.53
2017-06-30T06:54:26.125Z,1.33
2017-06-30T06:56:53.593Z,1.63
2017-06-30T06:59:21.058Z,1.33
2017-06-30T07:01:48.522Z,1.50
2017-06-30T07:04:16.775Z,1.47
2017-06-30T07:06:44.240Z,1.40
2017-06-30T07:09:11.816Z,2.10
2017-06-30T07:11:40.064Z,1.53
2017-06-30T07:14:07.543Z,1.70
2017-06-30T07:16:35.009Z,1.70
2017-06-30T07:19:03.279Z,1.37
2017-06-30T07:21:31.557Z,1.33
2017-06-30T07:23:59.812Z,1.83
2017-06-30T07:26:27.281Z,2.00
2017-06-30T07:28:54.833Z,1.57
2017-06-30T07:31:22.298Z,1.60
2017-06-30T07:33:49.751Z,1.70
2017-06-30T07:36:17.311Z,1.60
2017-06-30T07:38:44.871Z,1.80
2017-06-30T07:41:12.435Z,1.60
2017-06-30T07:43:40.670Z,2.50
2017-06-30T07:46:08.245Z,1.70
2017-06-30T07:48:35.721Z,2.30
2017-06-30T07:51:03.290Z,2.00
2017-06-30T07:53:31.529Z,2.00
2017-06-30T07:55:59.014Z,1.87
2017-06-30T07:58:26.486Z,2.53
2017-06-30T08:00:54.733Z,2.87
2017-06-30T08:03:22.192Z,2.83
2017-06-30T08:05:49.753Z,3.43
2017-06-30T08:08:17.219Z,2.70
2017-06-30T08:10:45.496Z,3.17
2017-06-30T08:13:13.777Z,3.30
2017-06-30T08:15:42.043Z,3.43
2017-06-30T08:18:10.314Z,3.73
2017-06-30T08:20:37.781Z,4.17
2017-06-30T08:23:06.041Z,3.53
2017-06-30T08:25:33.509Z,3.77
2017-06-30T08:28:01.748Z,4.07
2017-06-30T08:30:29.224Z,3.80
2017-06-30T08:32:56.798Z,4.20
2017-06-30T08:35:25.033Z,4.17
2017-06-30T08:37:52.502Z,4.67
2017-06-30T08:40:19.976Z,4.70
2017-06-30T08:42:47.444Z,4.37
2017-06-30T08:45:15.683Z,4.30
2017-06-30T08:47:43.132Z,4.37
2017-06-30T08:50:10.634Z,4.73
2017-06-30T08:52:38.907Z,4.30
2017-06-30T08:55:07.177Z,4.83
2017-06-30T08:57:34.643Z,5.33
2017-06-30T09:00:02.900Z,5.40
2017-06-30T09:02:30.461Z,5.20
2017-06-30T09:04:57.926Z,4.70
2017-06-30T09:07:25.407Z,4.43
2017-06-30T09:09:52.860Z,4.70
2017-06-30T09:12:20.334Z,4.53
2017-06-30T09:14:47.794Z,4.80
2017-06-30T09:17:15.309Z,4.60
2017-06-30T09:19:42.862Z,4.13
2017-06-30T09:22:10.421Z,4.43
2017-06-30T09:24:37.883Z,4.10
2017-06-30T09:27:06.144Z,4.23
2017-06-30T09:29:33.604Z,4.00
2017-06-30T09:32:01.081Z,4.60
2017-06-30T09:34:29.303Z,5.00
2017-06-30T09:36:56.764Z,5.07
2017-06-30T09:39:24.220Z,5.17
2017-06-30T09:41:51.812Z,4.60
2017-06-30T09:44:19.369Z,4.60
2017-06-30T09:46:46.823Z,5.23
2017-06-30T09:49:14.309Z,5.80
2017-06-30T09:51:42.557Z,5.97
2017-06-30T09:54:10.042Z,6.67
2017-06-30T09:56:38.272Z,7.23
2017-06-30T09:59:05.746Z,6.90
2017-06-30T10:01:33.201Z,7.20
2017-06-30T10:04:00.669Z,7.83
2017-06-30T10:06:28.906Z,7.90
2017-06-30T10:08:56.402Z,8.10
2017-06-30T10:11:23.939Z,7.70
2017-06-30T10:13:51.509Z,8.27
2017-06-30T10:16:19.073Z,7.50
2017-06-30T10:18:46.616Z,7.47
2017-06-30T10:21:14.189Z,8.00
2017-06-30T10:23:41.661Z,8.00
2017-06-30T10:26:10.012Z,6.97
2017-06-30T10:28:38.497Z,7.57
2017-06-30T10:31:05.976Z,6.60
2017-06-30T10:33:34.192Z,7.20
2017-06-30T10:36:01.690Z,8.63
2017-06-30T10:38:29.253Z,8.37
2017-06-30T10:40:56.717Z,9.40
2017-06-30T10:43:24.968Z,9.53
2017-06-30T10:45:53.247Z,8.03
2017-06-30T10:48:20.696Z,8.50
2017-06-30T10:50:48.265Z,9.30
2017-06-30T10:53:15.826Z,7.87
2017-06-30T10:55:43.394Z,8.40
2017-06-30T10:58:10.839Z,7.80
2017-06-30T11:00:38.415Z,8.33
2017-06-30T11:03:06.645Z,8.30
2017-06-30T11:05:34.115Z,7.80
2017-06-30T11:08:01.579Z,8.07
2017-06-30T11:10:29.042Z,7.97
2017-06-30T11:12:56.502Z,8.67
2017-06-30T11:15:23.952Z,8.17
2017-06-30T11:17:51.409Z,8.83
2017-06-30T11:20:18.878Z,8.40
2017-06-30T11:22:46.343Z,7.70
2017-06-30T11:25:13.885Z,7.40
2017-06-30T11:27:41.442Z,7.40
2017-06-30T11:30:08.915Z,6.60
2017-06-30T11:32:37.145Z,6.83
2017-06-30T11:35:04.621Z,6.70
2017-06-30T11:37:32.086Z,7.07
2017-06-30T11:39:59.637Z,7.73
2017-06-30T11:42:27.101Z,6.13
2017-06-30T11:44:54.562Z,8.10
2017-06-30T11:47:22.015Z,6.00
2017-06-30T11:49:49.584Z,6.20
2017-06-30T11:52:17.146Z,5.60
2017-06-30T11:54:44.694Z,6.70
2017-06-30T11:57:12.240Z,6.20
2017-06-30T11:59:39.713Z,6.90
2017-06-30T12:02:07.172Z,6.90
2017-06-30T12:04:34.643Z,6.90
2017-06-30T12:07:02.916Z,8.23
2017-06-30T12:09:31.178Z,6.80
2017-06-30T12:11:58.751Z,7.73
2017-06-30T12:14:27.009Z,7.53
2017-06-30T12:16:54.477Z,7.80
2017-06-30T12:19:21.937Z,7.80
2017-06-30T12:21:50.157Z,7.83
2017-06-30T12:24:17.648Z,8.13
2017-06-30T12:26:45.104Z,7.57
2017-06-30T12:29:12.585Z,8.77
2017-06-30T12:31:40.832Z,7.20
2017-06-30T12:34:08.399Z,7.20
2017-06-30T12:36:36.013Z,7.50
2017-06-30T12:39:03.466Z,8.43
2017-06-30T12:41:30.959Z,9.60
2017-06-30T12:43:58.404Z,8.70
2017-06-30T12:46:25.898Z,8.33
2017-06-30T12:48:54.111Z,9.00
2017-06-30T12:51:21.608Z,8.90
2017-06-30T12:53:49.081Z,9.80
2017-06-30T12:56:16.571Z,11.73
2017-06-30T12:58:44.020Z,9.20
2017-06-30T13:01:11.495Z,9.80
2017-06-30T13:03:38.998Z,11.60
2017-06-30T13:06:07.260Z,11.73
2017-06-30T13:08:34.720Z,10.53
2017-06-30T13:11:02.282Z,10.93
2017-06-30T13:13:29.854Z,11.10
2017-06-30T13:15:57.405Z,11.57
2017-06-30T13:18:24.860Z,11.60
2017-06-30T13:20:52.436Z,11.50
2017-06-30T13:23:19.899Z,10.50
2017-06-30T13:25:48.153Z,11.60
2017-06-30T13:28:15.626Z,11.07
2017-06-30T13:30:43.447Z,10.57
2017-06-30T13:33:10.942Z,10.60
2017-06-30T13:35:38.498Z,10.87
2017-06-30T13:38:05.955Z,11.47
2017-06-30T13:40:33.500Z,10.33
2017-06-30T13:43:01.521Z,11.80
2017-06-30T13:45:29.044Z,11.77
2017-06-30T13:47:56.523Z,13.00
2017-06-30T13:50:23.988Z,12.73
2017-06-30T13:52:51.467Z,13.10
2017-06-30T13:55:18.963Z,14.83
2017-06-30T13:57:46.438Z,14.10
2017-06-30T14:00:14.702Z,14.20
2017-06-30T14:02:42.203Z,13.20
2017-06-30T14:05:09.699Z,14.07
2017-06-30T14:07:37.161Z,13.37
2017-06-30T14:10:04.721Z,15.70
2017-06-30T14:12:32.337Z,11.93
2017-06-30T14:14:59.803Z,11.00
2017-06-30T14:17:27.271Z,10.37
2017-06-30T14:19:54.757Z,10.13
2017-06-30T14:22:22.221Z,10.03
2017-06-30T14:24:50.458Z,12.10
2017-06-30T14:27:17.907Z,12.90
2017-06-30T14:29:45.401Z,12.50
2017-06-30T14:32:12.951Z,14.47
2017-06-30T14:34:40.521Z,13.40
2017-06-30T14:37:08.064Z,13.43
2017-06-30T14:39:35.623Z,10.77
2017-06-30T14:42:03.088Z,9.87
2017-06-30T14:44:30.640Z,11.23
2017-06-30T14:46:58.127Z,10.33
2017-06-30T14:49:26.344Z,9.17
2017-06-30T14:51:53.824Z,8.73
2017-06-30T14:54:21.289Z,7.20
2017-06-30T14:56:48.744Z,7.57
2017-06-30T14:59:16.306Z,6.77
2017-06-30T15:01:43.765Z,5.90
2017-06-30T15:04:11.321Z,5.73
2017-06-30T15:06:38.891Z,5.10
2017-06-30T15:09:07.157Z,6.50
2017-06-30T15:11:34.613Z,5.67
2017-06-30T15:14:02.178Z,6.03
2017-06-30T15:16:30.408Z,4.90
2017-06-30T15:18:57.866Z,5.60
2017-06-30T15:21:25.352Z,4.97
2017-06-30T15:23:52.917Z,5.00
2017-06-30T15:26:20.363Z,5.87
2017-06-30T15:28:47.833Z,4.80
2017-06-30T15:31:15.389Z,4.47
2017-06-30T15:33:42.949Z,4.37
2017-06-30T15:36:10.496Z,5.00
2017-06-30T15:38:37.955Z,5.73
2017-06-30T15:41:05.421Z,4.73
2017-06-30T15:43:32.967Z,4.80
2017-06-30T15:46:00.604Z,5.57
2017-06-30T15:48:28.109Z,5.13
2017-06-30T15:50:56.333Z,4.60
2017-06-30T15:53:23.805Z,5.70
2017-06-30T15:55:51.268Z,6.53
2017-06-30T15:58:18.722Z,5.87
2017-06-30T16:00:46.181Z,5.90
2017-06-30T16:03:13.646Z,5.40
2017-06-30T16:05:41.246Z,6.80
2017-06-30T16:08:08.715Z,5.97
2017-06-30T16:10:36.199Z,5.97
2017-06-30T16:13:03.641Z,6.47
2017-06-30T16:15:31.128Z,5.73
2017-06-30T16:17:58.586Z,6.50
2017-06-30T16:20:26.142Z,7.50
2017-06-30T16:22:53.610Z,6.90
2017-06-30T16:25:21.083Z,7.10
2017-06-30T16:27:49.312Z,7.83
2017-06-30T16:30:16.760Z,6.70
2017-06-30T16:32:44.310Z,7.77
2017-06-30T16:35:11.826Z,7.87
2017-06-30T16:37:39.362Z,7.80
2017-06-30T16:40:06.817Z,6.50
2017-06-30T16:42:34.287Z,5.90
2017-06-30T16:45:01.868Z,6.30
2017-06-30T16:47:30.122Z,6.12
2017-06-30T16:49:57.664Z,4.97
2017-06-30T16:52:25.133Z,3.93
2017-06-30T16:54:52.590Z,3.70
2017-06-30T16:57:20.137Z,4.03
2017-06-30T16:59:47.764Z,3.77
2017-06-30T17:02:15.230Z,2.57
2017-06-30T17:04:42.692Z,2.03
2017-06-30T17:07:10.238Z,2.43
2017-06-30T17:09:37.697Z,1.50
2017-06-30T17:12:05.166Z,2.00
2017-06-30T17:14:32.629Z,1.40
2017-06-30T17:17:00.087Z,1.77
2017-06-30T17:19:27.545Z,1.97
2017-06-30T17:21:55.122Z,1.67
2017-06-30T17:24:22.641Z,1.67
2017-06-30T17:26:50.133Z,2.00
2017-06-30T17:29:17.697Z,1.87
2017-06-30T17:31:45.164Z,2.00
2017-06-30T17:34:13.534Z,1.87
2017-06-30T17:36:41.007Z,1.70
2017-06-30T17:39:09.241Z,1.40
2017-06-30T17:41:36.708Z,1.60
2017-06-30T17:44:04.231Z,1.10
2017-06-30T17:46:31.758Z,2.10
2017-06-30T17:49:00.020Z,1.80
2017-06-30T17:51:27.497Z,1.33
2017-06-30T17:53:55.020Z,1.60
2017-06-30T17:56:22.486Z,2.10
2017-06-30T17:58:50.732Z,1.93
2017-06-30T18:01:18.181Z,2.00
2017-06-30T18:03:46.583Z,1.90
2017-06-30T18:06:16.263Z,1.70
2017-06-30T18:08:43.977Z,2.00
2017-06-30T18:11:12.352Z,1.93
2017-06-30T18:13:40.584Z,2.10
2017-06-30T18:16:08.050Z,1.67
2017-06-30T18:18:35.508Z,1.83
2017-06-30T18:21:03.140Z,2.10
2017-06-30T18:23:31.533Z,1.83
2017-06-30T18:25:58.997Z,2.23
2017-06-30T18:28:26.492Z,1.90
2017-06-30T18:30:54.724Z,2.00
2017-06-30T18:33:22.206Z,2.57
2017-06-30T18:35:49.669Z,1.80
2017-06-30T18:38:17.136Z,2.20
2017-06-30T18:40:45.370Z,2.43
2017-06-30T18:43:12.839Z,2.47
2017-06-30T18:45:40.418Z,2.37
2017-06-30T18:48:07.960Z,2.20
2017-06-30T18:50:36.406Z,2.20
2017-06-30T18:53:04.989Z,2.30
2017-06-30T18:55:33.899Z,2.20
2017-06-30T18:58:02.221Z,2.23
2017-06-30T19:00:30.942Z,1.60
2017-06-30T19:02:59.058Z,2.20
2017-06-30T19:05:26.606Z,1.50
2017-06-30T19:07:54.171Z,1.77
2017-06-30T19:10:21.729Z,1.70
2017-06-30T19:12:49.238Z,1.30
2017-06-30T19:15:16.745Z,1.50
2017-06-30T19:17:44.950Z,1.57
2017-06-30T19:20:12.488Z,1.40
2017-06-30T19:22:40.748Z,1.40
2017-06-30T19:25:08.858Z,1.63
2017-06-30T19:27:36.393Z,2.20
2017-06-30T19:30:05.407Z,1.80
2017-06-30T19:32:33.032Z,1.67
2017-06-30T19:35:00.507Z,1.37
2017-06-30T19:37:28.769Z,1.23
2017-06-30T19:39:56.336Z,1.67
2017-06-30T19:42:25.788Z,1.60
2017-06-30T19:44:54.395Z,1.43
2017-06-30T19:47:22.294Z,1.77
2017-06-30T19:49:50.615Z,2.00
2017-06-30T19:52:18.117Z,2.20
2017-06-30T19:54:45.956Z,2.00
2017-06-30T19:57:14.369Z,1.97
2017-06-30T19:59:42.627Z,2.00
2017-06-30T20:02:10.226Z,2.70
2017-06-30T20:04:37.727Z,2.30
2017-06-30T20:07:05.367Z,2.17
2017-06-30T20:09:33.779Z,2.33
2017-06-30T20:12:01.359Z,2.67
2017-06-30T20:14:29.589Z,2.40
2017-06-30T20:16:57.044Z,2.53
2017-06-30T20:19:24.518Z,2.77
2017-06-30T20:21:51.983Z,3.07
2017-06-30T20:24:19.446Z,3.30
2017-06-30T20:26:47.912Z,2.30
2017-06-30T20:29:15.445Z,3.47
2017-06-30T20:31:43.770Z,2.70
2017-06-30T20:34:11.325Z,2.70
2017-06-30T20:36:38.799Z,3.40
2017-06-30T20:39:07.224Z,3.00
2017-06-30T20:41:35.739Z,3.00
2017-06-30T20:44:03.294Z,3.03
2017-06-30T20:46:30.759Z,2.80
2017-06-30T20:48:58.758Z,3.07
2017-06-30T20:51:26.442Z,3.03
2017-06-30T20:53:54.767Z,3.57
2017-06-30T20:56:22.235Z,3.07
2017-06-30T20:58:50.793Z,3.50
2017-06-30T21:01:19.155Z,3.30
2017-06-30T21:03:47.590Z,3.40
2017-06-30T21:06:16.105Z,3.80
2017-06-30T21:08:44.883Z,3.03
2017-06-30T21:11:12.584Z,3.37
2017-06-30T21:13:40.966Z,2.60
2017-06-30T21:16:10.645Z,3.07
2017-06-30T21:18:39.398Z,3.70
2017-06-30T21:21:08.129Z,3.07
2017-06-30T21:23:37.069Z,4.00
2017-06-30T21:26:06.028Z,3.17
2017-06-30T21:28:34.787Z,3.80
2017-06-30T21:31:02.362Z,3.83
2017-06-30T21:33:29.821Z,3.03
2017-06-30T21:35:57.291Z,4.00
2017-06-30T21:38:24.845Z,3.73
2017-06-30T21:40:52.404Z,3.30
2017-06-30T21:43:19.966Z,4.30
2017-06-30T21:45:47.438Z,3.40
2017-06-30T21:48:15.694Z,4.60
2017-06-30T21:50:43.155Z,4.20
2017-06-30T21:53:10.699Z,3.90
2017-06-30T21:55:38.274Z,4.20
2017-06-30T21:58:05.734Z,4.20
2017-06-30T22:00:33.205Z,3.50
2017-06-30T22:03:01.815Z,4.17
2017-06-30T22:05:29.277Z,3.93
2017-06-30T22:07:56.782Z,3.83
2017-06-30T22:10:24.261Z,4.10
2017-06-30T22:12:52.571Z,3.50
2017-06-30T22:15:20.025Z,4.00
2017-06-30T22:17:47.485Z,3.57
2017-06-30T22:20:14.998Z,3.50
2017-06-30T22:22:43.229Z,3.40
2017-06-30T22:25:10.722Z,3.80
2017-06-30T22:27:38.279Z,3.20
2017-06-30T22:30:05.839Z,3.43
2017-06-30T22:32:33.393Z,3.20
2017-06-30T22:35:00.844Z,3.93
2017-06-30T22:37:28.415Z,2.77
2017-06-30T22:39:55.960Z,3.20
2017-06-30T22:42:23.535Z,3.37
2017-06-30T22:44:51.792Z,2.97
2017-06-30T22:47:19.348Z,3.33
2017-06-30T22:49:46.823Z,2.97
2017-06-30T22:52:14.369Z,3.80
2017-06-30T22:54:41.920Z,3.40
2017-06-30T22:57:09.391Z,2.73
2017-06-30T22:59:36.869Z,3.10
2017-06-30T23:02:05.161Z,3.40
2017-06-30T23:04:32.681Z,3.03
2017-06-30T23:07:00.141Z,3.17
2017-06-30T23:09:27.698Z,3.33
2017-06-30T23:11:55.258Z,3.00
2017-06-30T23:14:22.809Z,3.63
2017-06-30T23:16:50.273Z,3.27
2017-06-30T23:19:17.742Z,3.50
2017-06-30T23:21:45.992Z,3.50
2017-06-30T23:24:13.547Z,4.13
2017-06-30T23:26:41.052Z,3.30
2017-06-30T23:29:08.574Z,3.37
2017-06-30T23:31:36.041Z,3.90
2017-06-30T23:34:04.406Z,3.60
2017-06-30T23:36:31.975Z,3.80
2017-06-30T23:38:59.524Z,3.60
2017-06-30T23:41:27.106Z,3.60
2017-06-30T23:43:55.321Z,4.37
2017-06-30T23:46:22.822Z,3.50
2017-06-30T23:48:50.281Z,3.70
2017-06-30T23:51:18.583Z,3.47
2017-06-30T23:53:46.041Z,3.37
2017-06-30T23:56:13.552Z,3.60
2017-06-30T23:58:41.126Z,3.63
